Natures Way Challenger — WDF7294 — position and weather

sailwx.info

Track history (hours):
 
Tides and Currents Weather Stations Pressure Air Temp Water Temp Dewpoint Dewpoint Depression Visibility Wind Speed Wind Dir Waves Ship Positions

Natures Way Challenger

More information available from US FCC via Universal Licensing System and Coast Guard Vessel Documentation Center.

Last reported at 2014-Sep-17 06:05 UTC. Time now 2014-Sep-17 07:35 UTC.
Position N 29°59' W 090°50'.

Length 14 m.

Type: Towing. MMSI: 367483050.

Date/timePositionNaut miles runAvg speedWind from/ knotsBaromVisibWave heightAir tempDewpointWater temp
2014-Sep-17 06:05N 29°59' W 090°50'2 2.4
2014-Sep-17 05:12N 30°00' W 090°48'2 3.6
2014-Sep-17 04:32N 30°01' W 090°45'4 3.8
2014-Sep-17 03:33N 30°02' W 090°41'4 3.6
2014-Sep-17 02:33N 30°02' W 090°37'4 3.7
2014-Sep-17 01:33N 30°03' W 090°33'3 3.4
2014-Sep-17 00:33N 30°03' W 090°29'1 1.2
2014-Sep-16 23:34N 30°01' W 090°29'2 1.7
2014-Sep-16 22:33N 29°60' W 090°28'  
2014-Sep-07 14:29N 29°57' W 090°18'9 4.4
2014-Sep-07 12:33N 29°60' W 090°27'4 4.2
2014-Sep-07 11:33N 30°03' W 090°31'5 5.3
2014-Sep-07 10:33N 30°02' W 090°37'5 4.7
2014-Sep-07 09:33N 30°02' W 090°42'7 5.0
2014-Sep-07 08:14N 29°59' W 090°49'4 5.2
2014-Sep-07 07:23N 30°03' W 090°50'  
Track history (hours):
 
Tides and Currents Weather Stations Pressure Air Temp Water Temp Dewpoint Dewpoint Depression Visibility Wind Speed Wind Dir Waves Ship Positions

Natures Way Challenger

More information available from US FCC via Universal Licensing System and Coast Guard Vessel Documentation Center.

Last reported at 2014-Sep-17 06:05 UTC. Time now 2014-Sep-17 07:35 UTC.
Position N 29°59' W 090°50'.

Length 14 m.

Type: Towing. MMSI: 367483050.

Date/timePositionNaut miles runAvg speedWind from/ knotsBaromVisibWave heightAir tempDewpointWater temp
2014-Sep-17 06:05N 29°59' W 090°50'2 2.4
2014-Sep-17 05:12N 30°00' W 090°48'2 3.6
2014-Sep-17 04:32N 30°01' W 090°45'4 3.8
2014-Sep-17 03:33N 30°02' W 090°41'4 3.6
2014-Sep-17 02:33N 30°02' W 090°37'4 3.7
2014-Sep-17 01:33N 30°03' W 090°33'3 3.4
2014-Sep-17 00:33N 30°03' W 090°29'1 1.2
2014-Sep-16 23:34N 30°01' W 090°29'2 1.7
2014-Sep-16 22:33N 29°60' W 090°28'  
2014-Sep-07 14:29N 29°57' W 090°18'9 4.4
2014-Sep-07 12:33N 29°60' W 090°27'4 4.2
2014-Sep-07 11:33N 30°03' W 090°31'5 5.3
2014-Sep-07 10:33N 30°02' W 090°37'5 4.7
2014-Sep-07 09:33N 30°02' W 090°42'7 5.0
2014-Sep-07 08:14N 29°59' W 090°49'4 5.2
2014-Sep-07 07:23N 30°03' W 090°50'  

Dump ship's entire track history